createdAt,value
2023-12-09T00:01:17.810Z,21.19
2023-12-09T00:03:44.977Z,21.13
2023-12-09T00:06:12.095Z,21.13
2023-12-09T00:08:39.271Z,21.13
2023-12-09T00:11:06.328Z,21.06
2023-12-09T00:13:33.391Z,21.13
2023-12-09T00:16:00.401Z,21.44
2023-12-09T00:18:27.546Z,21.19
2023-12-09T00:20:54.655Z,20.94
2023-12-09T00:23:21.653Z,20.75
2023-12-09T00:25:48.667Z,20.69
2023-12-09T00:28:15.658Z,20.63
2023-12-09T00:30:42.673Z,20.63
2023-12-09T00:33:09.819Z,20.63
2023-12-09T00:35:36.895Z,20.63
2023-12-09T00:38:03.877Z,20.56
2023-12-09T00:40:31.003Z,20.56
2023-12-09T00:42:58.027Z,20.50
2023-12-09T00:45:25.122Z,20.50
2023-12-09T00:47:52.295Z,20.50
2023-12-09T00:50:19.344Z,20.50
2023-12-09T00:52:46.352Z,20.44
2023-12-09T00:55:13.738Z,20.38
2023-12-09T00:57:40.749Z,20.25
2023-12-09T01:00:07.817Z,20.19
2023-12-09T01:02:34.874Z,20.19
2023-12-09T01:05:02.060Z,20.19
2023-12-09T01:07:29.115Z,20.25
2023-12-09T01:09:56.106Z,20.25
2023-12-09T01:12:23.164Z,20.19
2023-12-09T01:14:50.268Z,20.19
2023-12-09T01:17:17.396Z,20.19
2023-12-09T01:19:44.552Z,20.13
2023-12-09T01:22:11.647Z,20.38
2023-12-09T01:24:38.631Z,20.19
2023-12-09T01:27:05.643Z,20.06
2023-12-09T01:29:32.716Z,20.00
2023-12-09T01:31:59.693Z,19.94
2023-12-09T01:34:26.745Z,19.94
2023-12-09T01:36:53.813Z,19.94
2023-12-09T01:39:20.875Z,19.88
2023-12-09T01:41:47.897Z,19.88
2023-12-09T01:44:14.905Z,19.88
2023-12-09T01:46:41.886Z,19.88
2023-12-09T01:49:09.101Z,19.88
2023-12-09T01:51:36.285Z,19.81
2023-12-09T01:54:03.318Z,19.81
2023-12-09T01:56:30.342Z,19.81
2023-12-09T01:58:57.413Z,19.75
2023-12-09T02:01:24.447Z,19.69
2023-12-09T02:03:51.546Z,19.63
2023-12-09T02:06:18.671Z,19.56
2023-12-09T02:08:45.693Z,19.56
2023-12-09T02:11:12.715Z,19.56
2023-12-09T02:13:39.721Z,19.56
2023-12-09T02:16:06.721Z,19.63
2023-12-09T02:18:33.804Z,19.63
2023-12-09T02:21:01.005Z,19.56
2023-12-09T02:23:28.009Z,19.56
2023-12-09T02:25:54.988Z,19.81
2023-12-09T02:28:21.993Z,19.75
2023-12-09T02:30:48.983Z,19.56
2023-12-09T02:33:16.215Z,19.50
2023-12-09T02:35:43.314Z,19.44
2023-12-09T02:38:10.320Z,19.44
2023-12-09T02:40:37.356Z,19.38
2023-12-09T02:43:04.352Z,19.38
2023-12-09T02:45:31.424Z,19.38
2023-12-09T02:47:58.670Z,19.38
2023-12-09T02:50:25.726Z,19.38
2023-12-09T02:52:52.730Z,19.31
2023-12-09T02:55:19.761Z,19.38
2023-12-09T02:57:46.752Z,19.31
2023-12-09T03:00:13.838Z,19.31
2023-12-09T03:02:41.462Z,19.31
2023-12-09T03:05:08.487Z,19.31
2023-12-09T03:07:35.509Z,19.19
2023-12-09T03:10:02.569Z,19.13
2023-12-09T03:12:29.842Z,19.13
2023-12-09T03:14:57.026Z,19.13
2023-12-09T03:17:24.106Z,19.13
2023-12-09T03:19:51.230Z,19.13
2023-12-09T03:22:18.348Z,19.13
2023-12-09T03:24:45.331Z,19.13
2023-12-09T03:27:12.401Z,19.13
2023-12-09T03:29:39.404Z,19.13
2023-12-09T03:32:06.414Z,19.38
2023-12-09T03:34:33.559Z,19.25
2023-12-09T03:37:00.677Z,19.13
2023-12-09T03:39:27.679Z,19.06
2023-12-09T03:41:54.736Z,19.00
2023-12-09T03:44:21.795Z,19.00
2023-12-09T03:46:48.812Z,19.00
2023-12-09T03:49:15.915Z,19.00
2023-12-09T03:51:42.993Z,19.00
2023-12-09T03:54:09.992Z,18.94
2023-12-09T03:56:37.017Z,19.00
2023-12-09T03:59:04.005Z,18.94
2023-12-09T04:01:31.120Z,18.94
2023-12-09T04:03:58.417Z,18.94
2023-12-09T04:06:25.698Z,18.94
2023-12-09T04:08:52.737Z,18.94
2023-12-09T04:11:19.765Z,18.94
2023-12-09T04:13:46.805Z,18.88
2023-12-09T04:16:13.795Z,18.81
2023-12-09T04:18:40.878Z,18.75
2023-12-09T04:21:07.950Z,18.75
2023-12-09T04:23:34.921Z,18.81
2023-12-09T04:26:01.903Z,18.81
2023-12-09T04:28:28.912Z,19.06
2023-12-09T04:30:55.927Z,20.44
2023-12-09T04:33:23.006Z,28.69
2023-12-09T04:35:50.120Z,34.31
2023-12-09T04:38:17.095Z,36.06
2023-12-09T04:40:44.089Z,36.25
2023-12-09T04:43:11.102Z,36.44
2023-12-09T04:45:38.139Z,35.94
2023-12-09T04:48:05.254Z,32.44
2023-12-09T04:50:32.373Z,27.94
2023-12-09T04:52:59.376Z,25.13
2023-12-09T04:55:26.357Z,23.81
2023-12-09T04:57:53.361Z,23.25
2023-12-09T05:00:20.389Z,22.06
2023-12-09T05:02:47.444Z,21.56
2023-12-09T05:05:14.504Z,23.31
2023-12-09T05:07:41.524Z,31.19
2023-12-09T05:10:08.507Z,35.06
2023-12-09T05:12:35.561Z,36.00
2023-12-09T05:15:02.651Z,34.94
2023-12-09T05:17:29.687Z,27.81
2023-12-09T05:19:56.704Z,25.94
2023-12-09T05:22:23.770Z,31.75
2023-12-09T05:24:50.772Z,35.19
2023-12-09T05:27:17.782Z,35.94
2023-12-09T05:29:44.825Z,35.00
2023-12-09T05:32:11.812Z,29.19
2023-12-09T05:34:39.167Z,29.19
2023-12-09T05:37:06.231Z,34.63
2023-12-09T05:39:33.269Z,36.63
2023-12-09T05:42:00.512Z,37.00
2023-12-09T05:44:27.597Z,34.81
2023-12-09T05:46:54.575Z,30.19
2023-12-09T05:49:21.685Z,30.69
2023-12-09T05:51:48.740Z,35.69
2023-12-09T05:54:15.923Z,37.88
2023-12-09T05:56:42.966Z,37.94
2023-12-09T05:59:09.976Z,37.50
2023-12-09T06:01:36.988Z,32.69
2023-12-09T06:04:04.346Z,30.88
2023-12-09T06:06:31.448Z,34.81
2023-12-09T06:08:58.506Z,37.56
2023-12-09T06:11:25.546Z,38.19
2023-12-09T06:13:52.531Z,37.06
2023-12-09T06:16:19.550Z,35.81
2023-12-09T06:18:46.641Z,33.06
2023-12-09T06:21:13.725Z,33.31
2023-12-09T06:23:40.711Z,36.88
2023-12-09T06:26:07.709Z,38.38
2023-12-09T06:28:34.767Z,38.38
2023-12-09T06:31:01.750Z,37.06
2023-12-09T06:33:28.883Z,36.44
2023-12-09T06:35:56.003Z,36.94
2023-12-09T06:49:51.441Z,39.69
2023-12-09T06:52:18.589Z,39.88
2023-12-09T06:54:45.642Z,40.06
2023-12-09T06:57:12.689Z,40.19
2023-12-09T06:59:39.718Z,40.31
2023-12-09T07:02:06.698Z,40.44
2023-12-09T07:04:33.794Z,40.56
2023-12-09T07:07:00.841Z,40.69
2023-12-09T07:09:27.914Z,40.75
2023-12-09T07:12:01.851Z,40.88
2023-12-09T07:14:29.932Z,41.06
2023-12-09T07:16:57.017Z,40.88
2023-12-09T07:19:24.141Z,40.81
2023-12-09T07:21:51.171Z,40.94
2023-12-09T07:24:18.247Z,41.00
2023-12-09T07:26:45.256Z,40.81
2023-12-09T07:29:12.232Z,40.81
2023-12-09T07:31:39.269Z,40.94
2023-12-09T07:34:06.469Z,40.88
2023-12-09T07:36:33.647Z,40.75
2023-12-09T07:39:00.751Z,40.75
2023-12-09T07:41:27.767Z,40.81
2023-12-09T07:43:54.776Z,40.81
2023-12-09T07:46:21.797Z,40.94
2023-12-09T07:48:49.063Z,41.00
2023-12-09T07:51:16.253Z,40.75
2023-12-09T07:53:43.291Z,40.69
2023-12-09T07:56:10.289Z,40.69
2023-12-09T07:58:37.325Z,40.81
2023-12-09T08:01:07.415Z,40.88
2023-12-09T08:03:36.044Z,41.00
2023-12-09T08:06:03.226Z,41.06
2023-12-09T08:08:30.234Z,40.81
2023-12-09T08:10:57.220Z,40.75
2023-12-09T08:13:24.246Z,40.69
2023-12-09T08:15:51.216Z,40.69
2023-12-09T08:18:18.300Z,40.63
2023-12-09T08:20:45.486Z,40.63
2023-12-09T08:23:12.466Z,40.63
2023-12-09T08:25:39.441Z,40.63
2023-12-09T08:28:06.460Z,40.69
2023-12-09T08:30:33.496Z,40.69
2023-12-09T08:33:00.558Z,40.69
2023-12-09T08:35:27.688Z,40.69
2023-12-09T08:37:54.737Z,40.63
2023-12-09T08:40:21.755Z,40.56
2023-12-09T08:42:48.830Z,40.56
2023-12-09T08:45:15.897Z,40.56
2023-12-09T08:47:45.053Z,40.56
2023-12-09T08:50:22.214Z,40.56
2023-12-09T08:52:51.688Z,40.56
2023-12-09T08:55:18.971Z,40.56
2023-12-09T08:57:46.022Z,40.56
2023-12-09T09:00:13.058Z,40.50
2023-12-09T09:02:40.056Z,40.44
2023-12-09T09:05:07.081Z,40.44
2023-12-09T09:07:34.121Z,40.44
2023-12-09T09:10:01.129Z,40.38
2023-12-09T09:12:28.396Z,40.44
2023-12-09T09:14:55.564Z,40.44
2023-12-09T09:17:22.596Z,40.44
2023-12-09T09:19:49.715Z,40.38
2023-12-09T09:22:16.868Z,40.31
2023-12-09T09:24:43.864Z,40.31
2023-12-09T09:27:11.024Z,40.31
2023-12-09T09:29:38.079Z,40.25
2023-12-09T09:32:05.059Z,40.25
2023-12-09T09:34:32.273Z,40.31
2023-12-09T09:36:59.379Z,40.31
2023-12-09T09:39:26.372Z,40.25
2023-12-09T09:41:53.363Z,40.19
2023-12-09T09:44:20.357Z,40.19
2023-12-09T09:46:47.362Z,40.19
2023-12-09T09:49:14.419Z,40.19
2023-12-09T09:51:41.535Z,40.19
2023-12-09T09:54:08.578Z,40.19
2023-12-09T09:56:35.592Z,40.19
2023-12-09T09:59:02.773Z,40.13
2023-12-09T10:01:29.787Z,40.13
2023-12-09T10:03:56.836Z,40.06
2023-12-09T10:06:24.084Z,40.06
2023-12-09T10:08:51.351Z,40.06
2023-12-09T10:11:18.457Z,40.06
2023-12-09T10:13:45.521Z,40.00
2023-12-09T10:16:12.517Z,40.00
2023-12-09T10:18:39.589Z,40.00
2023-12-09T10:21:06.778Z,40.00
2023-12-09T10:23:33.765Z,40.00
2023-12-09T10:26:00.748Z,39.94
2023-12-09T10:28:27.751Z,39.94
2023-12-09T10:30:54.731Z,39.94
2023-12-09T10:33:21.799Z,39.94
2023-12-09T10:35:48.863Z,39.94
2023-12-09T10:38:15.842Z,39.94
2023-12-09T10:40:42.845Z,39.94
2023-12-09T10:43:09.890Z,40.00
2023-12-09T10:45:37.003Z,40.00
2023-12-09T10:48:04.214Z,40.00
2023-12-09T10:50:31.339Z,40.00
2023-12-09T10:52:58.368Z,40.00
2023-12-09T10:55:25.366Z,40.00
2023-12-09T10:57:52.364Z,40.00
2023-12-09T11:00:19.430Z,40.00
2023-12-09T11:02:46.448Z,40.00
2023-12-09T11:05:13.524Z,40.00
2023-12-09T11:07:40.569Z,40.00
2023-12-09T11:10:07.625Z,40.00
2023-12-09T11:12:34.655Z,40.00
2023-12-09T11:15:01.729Z,40.06
2023-12-09T11:17:28.922Z,40.06
2023-12-09T11:19:56.203Z,40.06
2023-12-09T11:22:23.324Z,40.06
2023-12-09T11:24:50.344Z,40.13
2023-12-09T11:27:17.436Z,40.13
2023-12-09T11:29:44.477Z,40.13
2023-12-09T11:32:11.492Z,40.19
2023-12-09T11:34:38.677Z,40.19
2023-12-09T11:37:05.752Z,40.19
2023-12-09T11:39:32.802Z,40.25
2023-12-09T11:41:59.919Z,40.25
2023-12-09T11:44:26.921Z,40.25
2023-12-09T11:46:53.987Z,40.25
2023-12-09T11:49:21.128Z,40.25
2023-12-09T11:51:48.199Z,40.25
2023-12-09T11:54:15.260Z,40.25
2023-12-09T11:56:42.261Z,40.25
2023-12-09T11:59:09.252Z,40.25
2023-12-09T12:01:36.311Z,40.25
2023-12-09T12:04:03.511Z,40.31
2023-12-09T12:06:30.730Z,40.31
2023-12-09T12:08:57.734Z,40.25
2023-12-09T12:11:24.722Z,40.25
2023-12-09T12:13:51.735Z,40.25
2023-12-09T12:16:18.704Z,40.25
2023-12-09T12:18:46.096Z,40.25
2023-12-09T12:21:13.259Z,40.31
2023-12-09T12:23:40.246Z,40.25
2023-12-09T12:26:07.224Z,40.25
2023-12-09T12:28:34.266Z,40.31
2023-12-09T12:31:01.335Z,40.31
2023-12-09T12:33:28.498Z,40.31
2023-12-09T12:35:55.593Z,40.31
2023-12-09T12:38:22.620Z,40.31
2023-12-09T12:40:49.600Z,40.31
2023-12-09T12:43:16.586Z,40.31
2023-12-09T12:45:43.686Z,40.38
2023-12-09T12:48:10.813Z,40.38
2023-12-09T12:50:37.933Z,40.38
2023-12-09T12:53:04.953Z,40.44
2023-12-09T12:55:31.953Z,40.44
2023-12-09T12:57:59.022Z,40.44
2023-12-09T13:00:26.588Z,40.44
2023-12-09T13:02:53.710Z,40.44
2023-12-09T13:05:20.930Z,40.44
2023-12-09T13:07:47.908Z,40.44
2023-12-09T13:10:14.934Z,40.44
2023-12-09T13:12:42.106Z,40.38
2023-12-09T13:15:09.159Z,40.31
2023-12-09T13:17:36.177Z,40.31
2023-12-09T13:20:03.208Z,40.38
2023-12-09T13:22:30.392Z,40.38
2023-12-09T13:24:57.537Z,40.38
2023-12-09T13:27:24.570Z,40.31
2023-12-09T13:29:51.629Z,40.38
2023-12-09T13:32:18.611Z,40.38
2023-12-09T13:34:45.632Z,40.38
2023-12-09T13:37:12.713Z,40.38
2023-12-09T13:39:39.879Z,40.38
2023-12-09T13:42:06.941Z,40.44
2023-12-09T13:44:33.954Z,40.50
2023-12-09T13:47:00.941Z,40.50
2023-12-09T13:49:28.186Z,40.50
2023-12-09T13:51:55.262Z,40.50
2023-12-09T13:54:22.279Z,40.50
2023-12-09T13:56:49.419Z,40.56
2023-12-09T13:59:16.399Z,40.56
2023-12-09T14:01:43.462Z,40.63
2023-12-09T14:04:10.548Z,40.56
2023-12-09T14:06:37.579Z,40.56
2023-12-09T14:09:04.731Z,40.56
2023-12-09T14:11:31.750Z,40.63
2023-12-09T14:13:58.727Z,40.63
2023-12-09T14:16:25.739Z,40.56
2023-12-09T14:18:52.822Z,40.56
2023-12-09T14:21:19.922Z,40.56
2023-12-09T14:23:47.007Z,40.56
2023-12-09T14:26:13.991Z,40.56
2023-12-09T14:28:40.973Z,40.56
2023-12-09T14:31:08.004Z,40.56
2023-12-09T14:33:35.131Z,40.56
2023-12-09T14:36:02.284Z,40.63
2023-12-09T14:38:29.365Z,40.63
2023-12-09T14:40:56.355Z,40.63
2023-12-09T14:43:23.335Z,40.63
2023-12-09T14:45:50.437Z,40.63
2023-12-09T14:48:17.575Z,40.63
2023-12-09T14:50:44.637Z,40.63
2023-12-09T14:53:11.649Z,40.69
2023-12-09T14:55:38.646Z,40.69
2023-12-09T14:58:05.635Z,40.69
2023-12-09T15:00:32.777Z,40.69
2023-12-09T15:02:59.811Z,40.63
2023-12-09T15:05:26.885Z,40.63
2023-12-09T15:07:53.986Z,40.69
2023-12-09T15:10:21.015Z,40.69
2023-12-09T15:12:48.561Z,40.56
2023-12-09T15:15:15.672Z,40.25
2023-12-09T15:17:42.737Z,40.19
2023-12-09T15:20:09.862Z,40.06
2023-12-09T15:22:36.893Z,40.00
2023-12-09T15:25:03.934Z,40.00
2023-12-09T15:27:30.980Z,40.00
2023-12-09T15:29:58.004Z,40.00
2023-12-09T15:32:25.053Z,39.94
2023-12-09T15:34:52.214Z,39.94
2023-12-09T15:37:19.355Z,39.94
2023-12-09T15:39:46.368Z,40.00
2023-12-09T15:42:13.506Z,40.00
2023-12-09T15:44:40.488Z,39.81
2023-12-09T15:47:07.469Z,39.56
2023-12-09T15:49:34.627Z,39.31
2023-12-09T15:52:01.684Z,39.06
2023-12-09T15:54:28.740Z,39.13
2023-12-09T15:56:55.756Z,39.13
2023-12-09T15:59:22.848Z,39.06
2023-12-09T16:01:49.916Z,38.50
2023-12-09T16:04:16.924Z,38.50
2023-12-09T16:06:43.937Z,38.88
2023-12-09T16:09:11.012Z,39.13
2023-12-09T16:11:38.112Z,39.19
2023-12-09T16:14:05.344Z,39.25
2023-12-09T16:16:32.318Z,39.31
2023-12-09T16:18:59.817Z,39.38
2023-12-09T16:21:26.901Z,39.44
2023-12-09T16:23:53.891Z,39.56
2023-12-09T16:26:20.963Z,39.69
2023-12-09T16:28:48.023Z,39.69
2023-12-09T16:31:15.486Z,39.81
2023-12-09T16:33:42.756Z,39.88
2023-12-09T16:36:10.021Z,39.94
2023-12-09T16:38:37.034Z,40.00
2023-12-09T16:41:04.030Z,40.06
2023-12-09T16:43:31.054Z,40.06
2023-12-09T16:45:58.044Z,40.06
2023-12-09T16:48:25.147Z,40.06
2023-12-09T16:50:52.334Z,40.13
2023-12-09T16:53:19.436Z,40.13
2023-12-09T16:55:46.491Z,40.19
2023-12-09T16:58:13.516Z,40.25
2023-12-09T17:00:40.668Z,40.25
2023-12-09T17:03:07.793Z,40.19
2023-12-09T17:05:34.957Z,40.25
2023-12-09T17:08:01.934Z,40.25
2023-12-09T17:10:28.913Z,40.25
2023-12-09T17:12:55.970Z,40.25
2023-12-09T17:15:23.125Z,40.31
2023-12-09T17:17:50.830Z,40.38
2023-12-09T17:20:17.927Z,40.38
2023-12-09T17:22:44.938Z,40.44
2023-12-09T17:25:11.907Z,40.44
2023-12-09T17:27:38.985Z,40.44
2023-12-09T17:30:06.054Z,40.44
2023-12-09T17:32:33.161Z,40.44
2023-12-09T17:35:00.278Z,40.50
2023-12-09T17:37:27.352Z,40.50
2023-12-09T17:39:54.513Z,40.56
2023-12-09T17:42:21.510Z,40.56
2023-12-09T17:44:48.546Z,40.56
2023-12-09T17:47:15.583Z,40.56
2023-12-09T17:49:42.598Z,40.56
2023-12-09T17:52:09.639Z,40.56
2023-12-09T17:54:36.799Z,40.63
2023-12-09T17:57:03.850Z,40.63
2023-12-09T17:59:30.923Z,40.63
2023-12-09T18:01:57.897Z,40.63
2023-12-09T18:04:24.935Z,40.69
2023-12-09T18:06:52.065Z,40.69
2023-12-09T18:09:19.171Z,40.75
2023-12-09T18:11:46.158Z,40.69
2023-12-09T18:14:13.153Z,40.69
2023-12-09T18:16:40.217Z,40.75
2023-12-09T18:19:07.473Z,40.69
2023-12-09T18:21:34.653Z,40.75
2023-12-09T18:24:01.800Z,40.75
2023-12-09T18:26:28.833Z,40.81
2023-12-09T18:28:55.863Z,40.44
2023-12-09T18:31:22.946Z,40.38
2023-12-09T18:33:50.130Z,40.31
2023-12-09T18:36:17.319Z,40.31
2023-12-09T18:38:44.333Z,40.31
2023-12-09T18:41:11.313Z,40.31
2023-12-09T18:43:38.381Z,40.31
2023-12-09T18:46:05.368Z,40.31
2023-12-09T18:48:32.460Z,40.25
2023-12-09T18:50:59.555Z,40.25
2023-12-09T18:53:26.557Z,40.25
2023-12-09T18:55:53.722Z,40.31
2023-12-09T18:58:20.699Z,40.31
2023-12-09T19:00:58.683Z,40.31
2023-12-09T19:03:32.046Z,40.31
2023-12-09T19:05:59.115Z,40.19
2023-12-09T19:08:26.124Z,39.94
2023-12-09T19:10:53.106Z,39.75
2023-12-09T19:13:20.111Z,39.56
2023-12-09T19:15:47.223Z,39.31
2023-12-09T19:18:14.397Z,39.13
2023-12-09T19:20:41.497Z,38.94
2023-12-09T19:23:08.496Z,39.25
2023-12-09T19:25:35.494Z,39.44
2023-12-09T19:28:02.483Z,39.44
2023-12-09T19:30:29.549Z,39.44
2023-12-09T19:32:56.605Z,39.50
2023-12-09T19:35:23.623Z,39.63
2023-12-09T19:37:50.613Z,39.69
2023-12-09T19:40:17.606Z,39.69
2023-12-09T19:42:44.634Z,39.75
2023-12-09T19:45:11.765Z,39.75
2023-12-09T19:47:38.947Z,39.81
2023-12-09T19:50:05.988Z,39.81
2023-12-09T19:52:33.064Z,39.88
2023-12-09T19:55:00.046Z,39.94
2023-12-09T19:57:27.050Z,40.00
2023-12-09T19:59:54.206Z,40.06
2023-12-09T20:02:21.206Z,40.00
2023-12-09T20:04:48.214Z,39.75
2023-12-09T20:07:16.689Z,39.38
2023-12-09T20:09:43.861Z,39.31
2023-12-09T20:12:10.884Z,39.06
2023-12-09T20:14:37.999Z,38.50
2023-12-09T20:17:04.980Z,37.81
2023-12-09T20:19:32.095Z,37.19
2023-12-09T20:21:59.188Z,36.69
2023-12-09T20:24:26.210Z,36.31
2023-12-09T20:26:53.255Z,35.94
2023-12-09T20:29:20.335Z,35.69
2023-12-09T20:31:47.311Z,35.38
2023-12-09T20:34:14.492Z,35.06
2023-12-09T20:36:41.733Z,34.69
2023-12-09T20:39:08.850Z,34.31
2023-12-09T20:41:35.875Z,33.94
2023-12-09T20:44:02.923Z,33.56
2023-12-09T20:46:29.956Z,33.13
2023-12-09T20:48:57.069Z,32.75
2023-12-09T20:51:24.179Z,32.38
2023-12-09T20:53:51.183Z,32.06
2023-12-09T20:56:18.223Z,31.75
2023-12-09T20:58:45.208Z,31.44
2023-12-09T21:01:12.333Z,30.63
2023-12-09T21:03:39.604Z,28.81
2023-12-09T21:06:06.695Z,28.13
2023-12-09T21:08:33.730Z,27.81
2023-12-09T21:11:00.729Z,27.69
2023-12-09T21:13:27.711Z,27.56
2023-12-09T21:15:54.866Z,27.44
2023-12-09T21:18:21.988Z,27.38
2023-12-09T21:20:49.021Z,27.25
2023-12-09T21:23:16.068Z,27.19
2023-12-09T21:25:43.054Z,27.00
2023-12-09T21:28:10.042Z,26.75
2023-12-09T21:30:37.110Z,26.50
2023-12-09T21:33:04.170Z,26.31
2023-12-09T21:35:31.243Z,26.25
2023-12-09T21:37:58.285Z,26.38
2023-12-09T21:40:25.293Z,26.44
2023-12-09T21:42:52.333Z,26.56
2023-12-09T21:45:19.403Z,26.69
2023-12-09T21:47:46.410Z,26.75
2023-12-09T21:50:13.417Z,26.81
2023-12-09T21:52:40.416Z,26.81
2023-12-09T21:55:07.391Z,26.81
2023-12-09T21:57:34.434Z,26.75
2023-12-09T22:00:01.454Z,26.69
2023-12-09T22:02:28.602Z,26.69
2023-12-09T22:04:55.835Z,26.69
2023-12-09T22:07:22.925Z,25.69
2023-12-09T22:09:50.025Z,24.88
2023-12-09T22:12:17.112Z,24.50
2023-12-09T22:14:44.160Z,24.31
2023-12-09T22:17:11.255Z,24.19
2023-12-09T22:19:38.279Z,24.13
2023-12-09T22:22:05.299Z,24.06
2023-12-09T22:24:32.464Z,24.00
2023-12-09T22:26:59.546Z,23.94
2023-12-09T22:29:26.686Z,23.94
2023-12-09T22:31:53.818Z,23.88
2023-12-09T22:34:20.922Z,23.81
2023-12-09T22:36:48.032Z,23.69
2023-12-09T22:39:15.153Z,23.50
2023-12-09T22:41:42.161Z,23.38
2023-12-09T22:44:09.264Z,23.31
2023-12-09T22:46:36.322Z,23.25
2023-12-09T22:49:03.496Z,23.25
2023-12-09T22:51:30.692Z,23.31
2023-12-09T22:53:57.727Z,23.31
2023-12-09T22:56:24.921Z,23.38
2023-12-09T22:58:51.921Z,23.50
2023-12-09T23:01:18.949Z,23.63
2023-12-09T23:03:45.957Z,23.69
2023-12-09T23:06:12.985Z,23.81
2023-12-09T23:08:40.675Z,23.88
2023-12-09T23:11:07.812Z,23.75
2023-12-09T23:13:34.785Z,23.13
2023-12-09T23:16:01.773Z,22.75
2023-12-09T23:18:28.842Z,22.50
2023-12-09T23:20:55.959Z,22.44
2023-12-09T23:23:22.932Z,22.38
2023-12-09T23:25:49.934Z,22.38
2023-12-09T23:28:16.964Z,22.31
2023-12-09T23:30:43.967Z,22.31
2023-12-09T23:33:11.119Z,22.25
2023-12-09T23:35:38.248Z,22.19
2023-12-09T23:38:05.241Z,22.19
2023-12-09T23:40:32.231Z,22.13
2023-12-09T23:42:59.273Z,22.13
2023-12-09T23:45:26.282Z,22.06
2023-12-09T23:47:53.342Z,22.00
2023-12-09T23:50:20.386Z,21.88
2023-12-09T23:52:47.392Z,21.75
2023-12-09T23:55:14.396Z,21.69
2023-12-09T23:57:41.401Z,21.69
